sensor_id;sensor_type;location;lat;lon;timestamp;P1;durP1;ratioP1;P2;durP2;ratioP2
80961;SDS011;70424;55.154;14.722;2023-12-14T00:00:06;5.63;;;3.10;;
80961;SDS011;70424;55.154;14.722;2023-12-14T00:02:33;6.63;;;2.90;;
80961;SDS011;70424;55.154;14.722;2023-12-14T00:04:58;6.53;;;3.20;;
80961;SDS011;70424;55.154;14.722;2023-12-14T00:07:24;5.65;;;3.17;;
80961;SDS011;70424;55.154;14.722;2023-12-14T00:09:49;4.63;;;2.83;;
80961;SDS011;70424;55.154;14.722;2023-12-14T00:12:15;4.53;;;3.33;;
80961;SDS011;70424;55.154;14.722;2023-12-14T00:14:40;5.63;;;3.03;;
80961;SDS011;70424;55.154;14.722;2023-12-14T00:17:06;5.13;;;2.95;;
80961;SDS011;70424;55.154;14.722;2023-12-14T00:19:31;6.85;;;2.80;;
80961;SDS011;70424;55.154;14.722;2023-12-14T00:21:56;5.97;;;3.17;;
80961;SDS011;70424;55.154;14.722;2023-12-14T00:24:22;4.65;;;2.70;;
80961;SDS011;70424;55.154;14.722;2023-12-14T00:26:47;5.78;;;3.60;;
80961;SDS011;70424;55.154;14.722;2023-12-14T00:29:12;6.57;;;3.80;;
80961;SDS011;70424;55.154;14.722;2023-12-14T00:31:38;4.57;;;2.70;;
80961;SDS011;70424;55.154;14.722;2023-12-14T00:34:03;3.92;;;2.60;;
80961;SDS011;70424;55.154;14.722;2023-12-14T00:36:28;4.50;;;2.50;;
80961;SDS011;70424;55.154;14.722;2023-12-14T00:38:54;5.57;;;2.80;;
80961;SDS011;70424;55.154;14.722;2023-12-14T00:41:20;5.03;;;3.15;;
80961;SDS011;70424;55.154;14.722;2023-12-14T00:43:46;6.80;;;3.10;;
80961;SDS011;70424;55.154;14.722;2023-12-14T00:46:11;6.30;;;3.13;;
80961;SDS011;70424;55.154;14.722;2023-12-14T00:48:37;5.20;;;2.90;;
80961;SDS011;70424;55.154;14.722;2023-12-14T00:51:02;3.80;;;2.67;;
80961;SDS011;70424;55.154;14.722;2023-12-14T00:53:28;5.57;;;2.75;;
80961;SDS011;70424;55.154;14.722;2023-12-14T00:55:53;5.13;;;3.08;;
80961;SDS011;70424;55.154;14.722;2023-12-14T00:58:19;5.55;;;2.95;;
80961;SDS011;70424;55.154;14.722;2023-12-14T01:00:44;4.60;;;2.67;;
80961;SDS011;70424;55.154;14.722;2023-12-14T01:03:09;5.88;;;3.10;;
80961;SDS011;70424;55.154;14.722;2023-12-14T01:05:35;4.63;;;2.88;;
80961;SDS011;70424;55.154;14.722;2023-12-14T01:08:00;4.57;;;2.53;;
80961;SDS011;70424;55.154;14.722;2023-12-14T01:10:25;5.82;;;2.90;;
80961;SDS011;70424;55.154;14.722;2023-12-14T01:12:51;4.68;;;3.00;;
80961;SDS011;70424;55.154;14.722;2023-12-14T01:15:16;4.03;;;2.70;;
80961;SDS011;70424;55.154;14.722;2023-12-14T01:17:42;5.32;;;3.25;;
80961;SDS011;70424;55.154;14.722;2023-12-14T01:20:07;4.60;;;2.45;;
80961;SDS011;70424;55.154;14.722;2023-12-14T01:22:33;3.95;;;2.30;;
80961;SDS011;70424;55.154;14.722;2023-12-14T01:24:59;4.25;;;2.40;;
80961;SDS011;70424;55.154;14.722;2023-12-14T01:27:24;5.13;;;2.50;;
80961;SDS011;70424;55.154;14.722;2023-12-14T01:29:50;3.88;;;2.65;;
80961;SDS011;70424;55.154;14.722;2023-12-14T01:32:15;3.92;;;2.35;;
80961;SDS011;70424;55.154;14.722;2023-12-14T01:34:41;4.25;;;1.98;;
80961;SDS011;70424;55.154;14.722;2023-12-14T01:37:06;4.80;;;2.60;;
80961;SDS011;70424;55.154;14.722;2023-12-14T01:39:32;4.57;;;2.75;;
80961;SDS011;70424;55.154;14.722;2023-12-14T01:41:57;7.18;;;2.30;;
80961;SDS011;70424;55.154;14.722;2023-12-14T01:44:23;5.60;;;2.38;;
80961;SDS011;70424;55.154;14.722;2023-12-14T01:46:48;7.15;;;2.90;;
80961;SDS011;70424;55.154;14.722;2023-12-14T01:49:14;5.10;;;2.17;;
80961;SDS011;70424;55.154;14.722;2023-12-14T01:51:40;4.70;;;2.28;;
80961;SDS011;70424;55.154;14.722;2023-12-14T01:54:05;5.43;;;2.50;;
80961;SDS011;70424;55.154;14.722;2023-12-14T01:56:31;4.88;;;2.40;;
80961;SDS011;70424;55.154;14.722;2023-12-14T01:58:56;4.85;;;2.30;;
80961;SDS011;70424;55.154;14.722;2023-12-14T02:04:10;4.28;;;2.28;;
80961;SDS011;70424;55.154;14.722;2023-12-14T02:06:35;4.18;;;2.20;;
80961;SDS011;70424;55.154;14.722;2023-12-14T02:09:01;5.40;;;2.47;;
80961;SDS011;70424;55.154;14.722;2023-12-14T02:11:27;3.65;;;2.22;;
80961;SDS011;70424;55.154;14.722;2023-12-14T02:13:52;3.90;;;2.28;;
80961;SDS011;70424;55.154;14.722;2023-12-14T02:16:18;6.38;;;2.70;;
80961;SDS011;70424;55.154;14.722;2023-12-14T02:18:43;7.47;;;2.40;;
80961;SDS011;70424;55.154;14.722;2023-12-14T02:21:10;4.25;;;2.42;;
80961;SDS011;70424;55.154;14.722;2023-12-14T02:23:35;3.60;;;2.10;;
80961;SDS011;70424;55.154;14.722;2023-12-14T02:26:07;3.20;;;2.10;;
80961;SDS011;70424;55.154;14.722;2023-12-14T02:28:32;4.78;;;2.22;;
80961;SDS011;70424;55.154;14.722;2023-12-14T02:30:57;4.22;;;2.60;;
80961;SDS011;70424;55.154;14.722;2023-12-14T02:33:23;3.72;;;2.40;;
80961;SDS011;70424;55.154;14.722;2023-12-14T02:35:48;4.57;;;2.40;;
80961;SDS011;70424;55.154;14.722;2023-12-14T02:38:13;4.00;;;2.25;;
80961;SDS011;70424;55.154;14.722;2023-12-14T02:40:39;3.58;;;2.30;;
80961;SDS011;70424;55.154;14.722;2023-12-14T02:43:04;5.63;;;2.67;;
80961;SDS011;70424;55.154;14.722;2023-12-14T02:45:29;5.85;;;2.25;;
80961;SDS011;70424;55.154;14.722;2023-12-14T02:47:55;4.03;;;2.10;;
80961;SDS011;70424;55.154;14.722;2023-12-14T02:50:20;5.07;;;2.70;;
80961;SDS011;70424;55.154;14.722;2023-12-14T02:52:46;5.15;;;2.42;;
80961;SDS011;70424;55.154;14.722;2023-12-14T02:55:11;4.65;;;2.05;;
80961;SDS011;70424;55.154;14.722;2023-12-14T02:57:37;3.78;;;2.30;;
80961;SDS011;70424;55.154;14.722;2023-12-14T03:00:02;3.33;;;2.17;;
80961;SDS011;70424;55.154;14.722;2023-12-14T03:02:28;4.45;;;2.20;;
80961;SDS011;70424;55.154;14.722;2023-12-14T03:04:53;3.67;;;2.15;;
80961;SDS011;70424;55.154;14.722;2023-12-14T03:07:19;3.38;;;2.00;;
80961;SDS011;70424;55.154;14.722;2023-12-14T03:09:44;6.90;;;2.53;;
80961;SDS011;70424;55.154;14.722;2023-12-14T03:12:10;4.38;;;1.98;;
80961;SDS011;70424;55.154;14.722;2023-12-14T03:14:36;4.70;;;2.17;;
80961;SDS011;70424;55.154;14.722;2023-12-14T03:17:01;5.20;;;2.30;;
80961;SDS011;70424;55.154;14.722;2023-12-14T03:19:27;4.70;;;2.38;;
80961;SDS011;70424;55.154;14.722;2023-12-14T03:21:53;5.53;;;2.55;;
80961;SDS011;70424;55.154;14.722;2023-12-14T03:24:19;4.57;;;2.30;;
80961;SDS011;70424;55.154;14.722;2023-12-14T03:26:44;4.60;;;2.42;;
80961;SDS011;70424;55.154;14.722;2023-12-14T03:29:10;4.55;;;2.38;;
80961;SDS011;70424;55.154;14.722;2023-12-14T03:31:35;3.72;;;2.50;;
80961;SDS011;70424;55.154;14.722;2023-12-14T03:34:01;4.78;;;2.08;;
80961;SDS011;70424;55.154;14.722;2023-12-14T03:36:26;4.80;;;2.30;;
80961;SDS011;70424;55.154;14.722;2023-12-14T03:38:52;6.45;;;3.28;;
80961;SDS011;70424;55.154;14.722;2023-12-14T03:41:18;5.45;;;2.42;;
80961;SDS011;70424;55.154;14.722;2023-12-14T03:43:43;6.03;;;2.20;;
80961;SDS011;70424;55.154;14.722;2023-12-14T03:46:09;3.95;;;2.30;;
80961;SDS011;70424;55.154;14.722;2023-12-14T03:48:35;6.88;;;3.25;;
80961;SDS011;70424;55.154;14.722;2023-12-14T03:51:03;4.32;;;2.72;;
80961;SDS011;70424;55.154;14.722;2023-12-14T03:53:30;5.70;;;2.53;;
80961;SDS011;70424;55.154;14.722;2023-12-14T03:55:56;5.55;;;3.55;;
80961;SDS011;70424;55.154;14.722;2023-12-14T03:58:22;6.53;;;3.15;;
80961;SDS011;70424;55.154;14.722;2023-12-14T04:00:48;5.60;;;3.20;;
80961;SDS011;70424;55.154;14.722;2023-12-14T04:03:13;6.25;;;2.85;;
80961;SDS011;70424;55.154;14.722;2023-12-14T04:05:38;7.93;;;2.95;;
80961;SDS011;70424;55.154;14.722;2023-12-14T04:08:04;4.88;;;3.00;;
80961;SDS011;70424;55.154;14.722;2023-12-14T04:10:30;9.50;;;3.53;;
80961;SDS011;70424;55.154;14.722;2023-12-14T04:12:55;6.53;;;3.00;;
80961;SDS011;70424;55.154;14.722;2023-12-14T04:15:21;6.30;;;3.30;;
80961;SDS011;70424;55.154;14.722;2023-12-14T04:17:46;6.18;;;3.00;;
80961;SDS011;70424;55.154;14.722;2023-12-14T04:20:12;4.85;;;2.70;;
80961;SDS011;70424;55.154;14.722;2023-12-14T04:22:38;4.45;;;2.40;;
80961;SDS011;70424;55.154;14.722;2023-12-14T04:25:03;5.65;;;2.50;;
80961;SDS011;70424;55.154;14.722;2023-12-14T04:27:29;5.78;;;3.00;;
80961;SDS011;70424;55.154;14.722;2023-12-14T04:29:55;5.60;;;2.90;;
80961;SDS011;70424;55.154;14.722;2023-12-14T04:32:20;4.38;;;2.72;;
80961;SDS011;70424;55.154;14.722;2023-12-14T04:34:46;6.25;;;3.00;;
80961;SDS011;70424;55.154;14.722;2023-12-14T04:37:12;5.20;;;3.33;;
80961;SDS011;70424;55.154;14.722;2023-12-14T04:39:37;4.97;;;2.88;;
80961;SDS011;70424;55.154;14.722;2023-12-14T04:42:02;8.43;;;2.97;;
80961;SDS011;70424;55.154;14.722;2023-12-14T04:44:28;5.68;;;2.60;;
80961;SDS011;70424;55.154;14.722;2023-12-14T04:46:53;5.68;;;2.53;;
80961;SDS011;70424;55.154;14.722;2023-12-14T04:49:19;5.00;;;2.60;;
80961;SDS011;70424;55.154;14.722;2023-12-14T04:51:45;5.68;;;3.05;;
80961;SDS011;70424;55.154;14.722;2023-12-14T04:54:10;4.70;;;2.58;;
80961;SDS011;70424;55.154;14.722;2023-12-14T04:56:35;5.55;;;2.78;;
80961;SDS011;70424;55.154;14.722;2023-12-14T04:59:01;6.05;;;3.05;;
80961;SDS011;70424;55.154;14.722;2023-12-14T05:01:27;5.28;;;2.92;;
80961;SDS011;70424;55.154;14.722;2023-12-14T05:03:52;4.95;;;2.55;;
80961;SDS011;70424;55.154;14.722;2023-12-14T05:06:18;6.15;;;2.67;;
80961;SDS011;70424;55.154;14.722;2023-12-14T05:08:43;5.70;;;2.80;;
80961;SDS011;70424;55.154;14.722;2023-12-14T05:11:09;5.22;;;2.90;;
80961;SDS011;70424;55.154;14.722;2023-12-14T05:13:34;5.45;;;3.40;;
80961;SDS011;70424;55.154;14.722;2023-12-14T05:16:00;6.40;;;2.95;;
80961;SDS011;70424;55.154;14.722;2023-12-14T05:18:26;5.53;;;3.33;;
80961;SDS011;70424;55.154;14.722;2023-12-14T05:20:52;5.93;;;3.25;;
80961;SDS011;70424;55.154;14.722;2023-12-14T05:23:17;7.93;;;3.42;;
80961;SDS011;70424;55.154;14.722;2023-12-14T05:25:43;8.55;;;3.80;;
80961;SDS011;70424;55.154;14.722;2023-12-14T05:28:09;6.07;;;3.75;;
80961;SDS011;70424;55.154;14.722;2023-12-14T05:30:34;7.47;;;3.72;;
80961;SDS011;70424;55.154;14.722;2023-12-14T05:32:59;5.93;;;3.30;;
80961;SDS011;70424;55.154;14.722;2023-12-14T05:35:25;5.65;;;3.58;;
80961;SDS011;70424;55.154;14.722;2023-12-14T05:37:50;6.45;;;3.58;;
80961;SDS011;70424;55.154;14.722;2023-12-14T05:40:16;6.78;;;3.38;;
80961;SDS011;70424;55.154;14.722;2023-12-14T05:42:41;6.53;;;3.28;;
80961;SDS011;70424;55.154;14.722;2023-12-14T05:45:07;6.78;;;3.55;;
80961;SDS011;70424;55.154;14.722;2023-12-14T05:47:32;6.22;;;3.70;;
80961;SDS011;70424;55.154;14.722;2023-12-14T05:49:59;6.75;;;3.50;;
80961;SDS011;70424;55.154;14.722;2023-12-14T05:52:25;6.57;;;3.17;;
80961;SDS011;70424;55.154;14.722;2023-12-14T05:54:51;5.72;;;3.08;;
80961;SDS011;70424;55.154;14.722;2023-12-14T05:57:16;4.97;;;2.90;;
80961;SDS011;70424;55.154;14.722;2023-12-14T05:59:41;5.55;;;3.00;;
80961;SDS011;70424;55.154;14.722;2023-12-14T06:02:07;6.25;;;3.20;;
80961;SDS011;70424;55.154;14.722;2023-12-14T06:04:33;5.18;;;2.97;;
80961;SDS011;70424;55.154;14.722;2023-12-14T06:06:58;5.47;;;3.00;;
80961;SDS011;70424;55.154;14.722;2023-12-14T06:09:24;5.47;;;3.17;;
80961;SDS011;70424;55.154;14.722;2023-12-14T06:11:54;6.18;;;3.20;;
80961;SDS011;70424;55.154;14.722;2023-12-14T06:14:20;5.97;;;3.70;;
80961;SDS011;70424;55.154;14.722;2023-12-14T06:16:45;5.80;;;3.45;;
80961;SDS011;70424;55.154;14.722;2023-12-14T06:19:11;7.60;;;4.00;;
80961;SDS011;70424;55.154;14.722;2023-12-14T06:21:37;5.70;;;3.60;;
80961;SDS011;70424;55.154;14.722;2023-12-14T06:24:02;8.15;;;3.40;;
80961;SDS011;70424;55.154;14.722;2023-12-14T06:26:27;10.40;;;3.67;;
80961;SDS011;70424;55.154;14.722;2023-12-14T06:28:53;6.57;;;3.35;;
80961;SDS011;70424;55.154;14.722;2023-12-14T06:31:18;5.50;;;3.50;;
80961;SDS011;70424;55.154;14.722;2023-12-14T06:36:12;6.60;;;3.78;;
80961;SDS011;70424;55.154;14.722;2023-12-14T06:38:38;6.50;;;3.67;;
80961;SDS011;70424;55.154;14.722;2023-12-14T06:41:04;7.20;;;3.78;;
80961;SDS011;70424;55.154;14.722;2023-12-14T06:43:30;5.97;;;3.85;;
80961;SDS011;70424;55.154;14.722;2023-12-14T06:45:55;4.63;;;3.00;;
80961;SDS011;70424;55.154;14.722;2023-12-14T06:48:21;5.15;;;3.22;;
80961;SDS011;70424;55.154;14.722;2023-12-14T06:50:46;7.28;;;3.55;;
80961;SDS011;70424;55.154;14.722;2023-12-14T06:53:12;6.15;;;3.10;;
80961;SDS011;70424;55.154;14.722;2023-12-14T06:55:37;5.97;;;3.05;;
80961;SDS011;70424;55.154;14.722;2023-12-14T06:58:02;4.88;;;2.80;;
80961;SDS011;70424;55.154;14.722;2023-12-14T07:00:28;7.43;;;3.47;;
80961;SDS011;70424;55.154;14.722;2023-12-14T07:02:54;3.95;;;2.50;;
80961;SDS011;70424;55.154;14.722;2023-12-14T07:05:20;4.63;;;3.00;;
80961;SDS011;70424;55.154;14.722;2023-12-14T07:07:45;6.57;;;2.65;;
80961;SDS011;70424;55.154;14.722;2023-12-14T07:10:11;5.57;;;3.10;;
80961;SDS011;70424;55.154;14.722;2023-12-14T07:12:37;4.30;;;2.78;;
80961;SDS011;70424;55.154;14.722;2023-12-14T07:15:02;7.60;;;3.17;;
80961;SDS011;70424;55.154;14.722;2023-12-14T07:17:28;6.38;;;2.95;;
80961;SDS011;70424;55.154;14.722;2023-12-14T07:19:53;5.30;;;3.13;;
80961;SDS011;70424;55.154;14.722;2023-12-14T07:22:18;3.95;;;2.95;;
80961;SDS011;70424;55.154;14.722;2023-12-14T07:24:44;5.70;;;3.17;;
80961;SDS011;70424;55.154;14.722;2023-12-14T07:27:09;5.50;;;3.20;;
80961;SDS011;70424;55.154;14.722;2023-12-14T07:29:34;5.35;;;2.97;;
80961;SDS011;70424;55.154;14.722;2023-12-14T07:32:00;4.63;;;2.75;;
80961;SDS011;70424;55.154;14.722;2023-12-14T07:34:25;5.32;;;3.15;;
80961;SDS011;70424;55.154;14.722;2023-12-14T07:36:53;7.20;;;3.67;;
80961;SDS011;70424;55.154;14.722;2023-12-14T07:39:18;6.05;;;3.60;;
80961;SDS011;70424;55.154;14.722;2023-12-14T07:41:44;5.50;;;3.50;;
80961;SDS011;70424;55.154;14.722;2023-12-14T07:44:09;6.82;;;3.90;;
80961;SDS011;70424;55.154;14.722;2023-12-14T07:46:35;7.35;;;4.63;;
80961;SDS011;70424;55.154;14.722;2023-12-14T07:49:01;6.97;;;4.00;;
80961;SDS011;70424;55.154;14.722;2023-12-14T07:51:27;5.90;;;3.95;;
80961;SDS011;70424;55.154;14.722;2023-12-14T07:53:52;7.72;;;3.88;;
80961;SDS011;70424;55.154;14.722;2023-12-14T07:56:18;6.85;;;4.00;;
80961;SDS011;70424;55.154;14.722;2023-12-14T07:58:43;5.97;;;3.78;;
80961;SDS011;70424;55.154;14.722;2023-12-14T08:01:08;5.18;;;3.53;;
80961;SDS011;70424;55.154;14.722;2023-12-14T08:03:34;7.50;;;3.85;;
80961;SDS011;70424;55.154;14.722;2023-12-14T08:06:00;6.63;;;3.50;;
80961;SDS011;70424;55.154;14.722;2023-12-14T08:08:25;6.47;;;3.70;;
80961;SDS011;70424;55.154;14.722;2023-12-14T08:10:51;7.00;;;4.05;;
80961;SDS011;70424;55.154;14.722;2023-12-14T08:13:16;7.30;;;3.85;;
80961;SDS011;70424;55.154;14.722;2023-12-14T08:15:42;6.97;;;4.07;;
80961;SDS011;70424;55.154;14.722;2023-12-14T08:18:07;5.78;;;3.65;;
80961;SDS011;70424;55.154;14.722;2023-12-14T08:20:32;8.75;;;4.20;;
80961;SDS011;70424;55.154;14.722;2023-12-14T08:22:59;6.70;;;3.75;;
80961;SDS011;70424;55.154;14.722;2023-12-14T08:25:24;6.55;;;3.70;;
80961;SDS011;70424;55.154;14.722;2023-12-14T08:27:50;5.93;;;3.58;;
80961;SDS011;70424;55.154;14.722;2023-12-14T08:30:16;7.15;;;4.00;;
80961;SDS011;70424;55.154;14.722;2023-12-14T08:32:42;5.38;;;3.55;;
80961;SDS011;70424;55.154;14.722;2023-12-14T08:35:08;7.40;;;3.40;;
80961;SDS011;70424;55.154;14.722;2023-12-14T08:37:35;5.78;;;2.90;;
80961;SDS011;70424;55.154;14.722;2023-12-14T08:40:01;7.35;;;3.25;;
80961;SDS011;70424;55.154;14.722;2023-12-14T08:42:27;5.07;;;3.17;;
80961;SDS011;70424;55.154;14.722;2023-12-14T08:44:52;7.15;;;3.75;;
80961;SDS011;70424;55.154;14.722;2023-12-14T08:47:17;7.88;;;3.03;;
80961;SDS011;70424;55.154;14.722;2023-12-14T08:49:43;5.10;;;3.17;;
80961;SDS011;70424;55.154;14.722;2023-12-14T08:52:08;6.25;;;3.40;;
80961;SDS011;70424;55.154;14.722;2023-12-14T08:57:01;5.53;;;3.55;;
80961;SDS011;70424;55.154;14.722;2023-12-14T08:59:27;5.10;;;3.75;;
80961;SDS011;70424;55.154;14.722;2023-12-14T09:01:52;6.43;;;3.70;;
80961;SDS011;70424;55.154;14.722;2023-12-14T09:04:18;6.85;;;3.50;;
80961;SDS011;70424;55.154;14.722;2023-12-14T09:06:43;6.25;;;3.58;;
80961;SDS011;70424;55.154;14.722;2023-12-14T09:09:10;5.53;;;3.60;;
80961;SDS011;70424;55.154;14.722;2023-12-14T09:11:35;5.35;;;3.50;;
80961;SDS011;70424;55.154;14.722;2023-12-14T09:14:02;5.90;;;3.45;;
80961;SDS011;70424;55.154;14.722;2023-12-14T09:16:27;6.43;;;3.35;;
80961;SDS011;70424;55.154;14.722;2023-12-14T09:18:53;7.72;;;3.78;;
80961;SDS011;70424;55.154;14.722;2023-12-14T09:21:18;7.53;;;3.38;;
80961;SDS011;70424;55.154;14.722;2023-12-14T09:23:43;5.55;;;3.05;;
80961;SDS011;70424;55.154;14.722;2023-12-14T09:26:09;6.38;;;3.17;;
80961;SDS011;70424;55.154;14.722;2023-12-14T09:28:35;6.20;;;3.95;;
80961;SDS011;70424;55.154;14.722;2023-12-14T09:31:01;7.57;;;4.15;;
80961;SDS011;70424;55.154;14.722;2023-12-14T09:33:26;6.10;;;3.63;;
80961;SDS011;70424;55.154;14.722;2023-12-14T09:35:52;5.70;;;3.10;;
80961;SDS011;70424;55.154;14.722;2023-12-14T09:38:17;5.50;;;3.20;;
80961;SDS011;70424;55.154;14.722;2023-12-14T09:40:44;5.78;;;3.70;;
80961;SDS011;70424;55.154;14.722;2023-12-14T09:43:09;5.75;;;3.13;;
80961;SDS011;70424;55.154;14.722;2023-12-14T09:45:36;8.03;;;3.23;;
80961;SDS011;70424;55.154;14.722;2023-12-14T09:48:06;5.18;;;3.40;;
80961;SDS011;70424;55.154;14.722;2023-12-14T09:50:34;6.68;;;3.30;;
80961;SDS011;70424;55.154;14.722;2023-12-14T09:53:00;7.60;;;4.38;;
80961;SDS011;70424;55.154;14.722;2023-12-14T09:55:26;6.63;;;3.83;;
80961;SDS011;70424;55.154;14.722;2023-12-14T09:57:51;6.97;;;3.60;;
80961;SDS011;70424;55.154;14.722;2023-12-14T10:00:33;6.35;;;3.40;;
80961;SDS011;70424;55.154;14.722;2023-12-14T10:03:17;7.03;;;3.42;;
80961;SDS011;70424;55.154;14.722;2023-12-14T10:05:43;5.75;;;3.53;;
80961;SDS011;70424;55.154;14.722;2023-12-14T10:08:09;5.80;;;3.40;;
80961;SDS011;70424;55.154;14.722;2023-12-14T10:10:34;7.47;;;3.40;;
80961;SDS011;70424;55.154;14.722;2023-12-14T10:12:59;5.28;;;3.40;;
80961;SDS011;70424;55.154;14.722;2023-12-14T10:15:26;5.55;;;3.45;;
80961;SDS011;70424;55.154;14.722;2023-12-14T10:17:52;5.93;;;3.40;;
80961;SDS011;70424;55.154;14.722;2023-12-14T10:20:22;6.25;;;3.55;;
80961;SDS011;70424;55.154;14.722;2023-12-14T10:22:51;6.78;;;3.70;;
80961;SDS011;70424;55.154;14.722;2023-12-14T10:25:18;7.30;;;3.90;;
80961;SDS011;70424;55.154;14.722;2023-12-14T10:27:48;7.13;;;3.90;;
80961;SDS011;70424;55.154;14.722;2023-12-14T10:30:16;5.95;;;4.20;;
80961;SDS011;70424;55.154;14.722;2023-12-14T10:32:42;6.43;;;4.00;;
80961;SDS011;70424;55.154;14.722;2023-12-14T10:35:07;5.90;;;3.65;;
80961;SDS011;70424;55.154;14.722;2023-12-14T10:37:34;6.18;;;3.58;;
80961;SDS011;70424;55.154;14.722;2023-12-14T10:40:03;6.68;;;3.72;;
80961;SDS011;70424;55.154;14.722;2023-12-14T10:42:31;6.65;;;4.10;;
80961;SDS011;70424;55.154;14.722;2023-12-14T10:44:58;6.85;;;4.20;;
80961;SDS011;70424;55.154;14.722;2023-12-14T10:47:27;7.45;;;4.25;;
80961;SDS011;70424;55.154;14.722;2023-12-14T10:49:52;6.78;;;4.22;;
80961;SDS011;70424;55.154;14.722;2023-12-14T10:52:20;7.15;;;4.32;;
80961;SDS011;70424;55.154;14.722;2023-12-14T10:54:47;6.35;;;3.90;;
80961;SDS011;70424;55.154;14.722;2023-12-14T10:57:17;8.48;;;4.10;;
80961;SDS011;70424;55.154;14.722;2023-12-14T10:59:43;5.80;;;3.90;;
80961;SDS011;70424;55.154;14.722;2023-12-14T11:02:09;9.50;;;4.72;;
80961;SDS011;70424;55.154;14.722;2023-12-14T11:07:44;6.47;;;4.18;;
80961;SDS011;70424;55.154;14.722;2023-12-14T11:10:11;6.63;;;4.25;;
80961;SDS011;70424;55.154;14.722;2023-12-14T11:12:36;6.57;;;4.10;;
80961;SDS011;70424;55.154;14.722;2023-12-14T11:15:02;6.63;;;4.20;;
80961;SDS011;70424;55.154;14.722;2023-12-14T11:17:30;6.07;;;3.80;;
80961;SDS011;70424;55.154;14.722;2023-12-14T11:19:55;5.32;;;3.50;;
80961;SDS011;70424;55.154;14.722;2023-12-14T11:22:24;5.75;;;3.85;;
80961;SDS011;70424;55.154;14.722;2023-12-14T11:24:54;7.85;;;3.97;;
80961;SDS011;70424;55.154;14.722;2023-12-14T11:27:20;5.90;;;4.05;;
80961;SDS011;70424;55.154;14.722;2023-12-14T11:29:50;6.43;;;4.50;;
80961;SDS011;70424;55.154;14.722;2023-12-14T11:32:17;6.32;;;4.13;;
80961;SDS011;70424;55.154;14.722;2023-12-14T11:34:45;6.50;;;3.78;;
80961;SDS011;70424;55.154;14.722;2023-12-14T11:39:37;7.05;;;4.03;;
80961;SDS011;70424;55.154;14.722;2023-12-14T11:42:04;8.25;;;4.82;;
80961;SDS011;70424;55.154;14.722;2023-12-14T11:44:31;7.43;;;4.43;;
80961;SDS011;70424;55.154;14.722;2023-12-14T11:46:57;7.35;;;3.97;;
80961;SDS011;70424;55.154;14.722;2023-12-14T11:49:25;8.75;;;4.85;;
80961;SDS011;70424;55.154;14.722;2023-12-14T11:51:52;6.82;;;4.28;;
80961;SDS011;70424;55.154;14.722;2023-12-14T11:54:19;6.28;;;4.45;;
80961;SDS011;70424;55.154;14.722;2023-12-14T11:56:46;8.52;;;4.95;;
80961;SDS011;70424;55.154;14.722;2023-12-14T11:59:14;7.95;;;4.90;;
80961;SDS011;70424;55.154;14.722;2023-12-14T12:01:40;7.30;;;4.35;;
80961;SDS011;70424;55.154;14.722;2023-12-14T12:04:25;6.85;;;4.45;;
80961;SDS011;70424;55.154;14.722;2023-12-14T12:07:13;9.00;;;4.82;;
80961;SDS011;70424;55.154;14.722;2023-12-14T12:09:38;10.90;;;5.10;;
80961;SDS011;70424;55.154;14.722;2023-12-14T12:12:07;7.90;;;4.55;;
80961;SDS011;70424;55.154;14.722;2023-12-14T12:14:34;9.60;;;4.80;;
80961;SDS011;70424;55.154;14.722;2023-12-14T12:16:59;8.27;;;4.45;;
80961;SDS011;70424;55.154;14.722;2023-12-14T12:19:25;9.20;;;4.68;;
80961;SDS011;70424;55.154;14.722;2023-12-14T12:21:50;8.45;;;4.60;;
80961;SDS011;70424;55.154;14.722;2023-12-14T12:24:16;8.00;;;4.50;;
80961;SDS011;70424;55.154;14.722;2023-12-14T12:26:41;6.93;;;4.55;;
80961;SDS011;70424;55.154;14.722;2023-12-14T12:29:06;11.20;;;4.93;;
80961;SDS011;70424;55.154;14.722;2023-12-14T12:31:32;8.45;;;4.30;;
80961;SDS011;70424;55.154;14.722;2023-12-14T12:33:59;9.30;;;4.60;;
80961;SDS011;70424;55.154;14.722;2023-12-14T12:36:24;7.43;;;4.72;;
80961;SDS011;70424;55.154;14.722;2023-12-14T12:38:50;7.03;;;4.13;;
80961;SDS011;70424;55.154;14.722;2023-12-14T12:41:16;8.23;;;5.15;;
80961;SDS011;70424;55.154;14.722;2023-12-14T12:43:42;8.80;;;5.10;;
80961;SDS011;70424;55.154;14.722;2023-12-14T12:46:08;8.93;;;4.68;;
80961;SDS011;70424;55.154;14.722;2023-12-14T12:48:34;8.05;;;5.13;;
80961;SDS011;70424;55.154;14.722;2023-12-14T12:51:00;8.23;;;5.05;;
80961;SDS011;70424;55.154;14.722;2023-12-14T12:53:26;9.02;;;5.50;;
80961;SDS011;70424;55.154;14.722;2023-12-14T12:55:51;8.20;;;4.60;;
80961;SDS011;70424;55.154;14.722;2023-12-14T12:58:17;8.20;;;4.90;;
80961;SDS011;70424;55.154;14.722;2023-12-14T13:00:42;8.05;;;4.53;;
80961;SDS011;70424;55.154;14.722;2023-12-14T13:03:07;7.95;;;4.68;;
80961;SDS011;70424;55.154;14.722;2023-12-14T13:05:33;8.50;;;4.80;;
80961;SDS011;70424;55.154;14.722;2023-12-14T13:07:58;9.00;;;5.53;;
80961;SDS011;70424;55.154;14.722;2023-12-14T13:10:24;10.98;;;5.28;;
80961;SDS011;70424;55.154;14.722;2023-12-14T13:12:53;7.82;;;4.82;;
80961;SDS011;70424;55.154;14.722;2023-12-14T13:15:18;7.43;;;5.13;;
80961;SDS011;70424;55.154;14.722;2023-12-14T13:17:44;7.55;;;4.65;;
80961;SDS011;70424;55.154;14.722;2023-12-14T13:20:09;7.50;;;4.72;;
80961;SDS011;70424;55.154;14.722;2023-12-14T13:22:35;8.07;;;4.63;;
80961;SDS011;70424;55.154;14.722;2023-12-14T13:25:00;6.90;;;4.75;;
80961;SDS011;70424;55.154;14.722;2023-12-14T13:27:26;7.38;;;4.65;;
80961;SDS011;70424;55.154;14.722;2023-12-14T13:29:51;9.27;;;5.00;;
80961;SDS011;70424;55.154;14.722;2023-12-14T13:32:16;8.10;;;5.18;;
80961;SDS011;70424;55.154;14.722;2023-12-14T13:34:42;9.43;;;5.60;;
80961;SDS011;70424;55.154;14.722;2023-12-14T13:37:07;7.72;;;5.15;;
80961;SDS011;70424;55.154;14.722;2023-12-14T13:39:34;7.32;;;4.70;;
80961;SDS011;70424;55.154;14.722;2023-12-14T13:42:06;8.98;;;5.13;;
80961;SDS011;70424;55.154;14.722;2023-12-14T13:44:31;10.05;;;5.43;;
80961;SDS011;70424;55.154;14.722;2023-12-14T13:47:03;7.78;;;5.05;;
80961;SDS011;70424;55.154;14.722;2023-12-14T13:49:29;9.85;;;4.88;;
80961;SDS011;70424;55.154;14.722;2023-12-14T13:51:54;8.85;;;5.93;;
80961;SDS011;70424;55.154;14.722;2023-12-14T13:54:19;16.20;;;8.75;;
80961;SDS011;70424;55.154;14.722;2023-12-14T13:56:45;25.63;;;17.70;;
80961;SDS011;70424;55.154;14.722;2023-12-14T13:59:10;35.92;;;23.85;;
80961;SDS011;70424;55.154;14.722;2023-12-14T14:01:36;13.82;;;9.10;;
80961;SDS011;70424;55.154;14.722;2023-12-14T14:04:01;12.18;;;8.77;;
80961;SDS011;70424;55.154;14.722;2023-12-14T14:06:26;24.00;;;11.73;;
80961;SDS011;70424;55.154;14.722;2023-12-14T14:08:52;35.85;;;22.95;;
80961;SDS011;70424;55.154;14.722;2023-12-14T14:11:18;31.70;;;20.48;;
80961;SDS011;70424;55.154;14.722;2023-12-14T14:13:44;21.95;;;15.90;;
80961;SDS011;70424;55.154;14.722;2023-12-14T14:16:10;17.70;;;12.27;;
80961;SDS011;70424;55.154;14.722;2023-12-14T14:18:35;15.90;;;11.77;;
80961;SDS011;70424;55.154;14.722;2023-12-14T14:21:01;18.27;;;13.98;;
80961;SDS011;70424;55.154;14.722;2023-12-14T14:23:26;20.10;;;15.60;;
80961;SDS011;70424;55.154;14.722;2023-12-14T14:25:52;16.00;;;12.90;;
80961;SDS011;70424;55.154;14.722;2023-12-14T14:28:20;12.70;;;9.10;;
80961;SDS011;70424;55.154;14.722;2023-12-14T14:30:47;11.57;;;6.85;;
80961;SDS011;70424;55.154;14.722;2023-12-14T14:33:13;12.30;;;6.05;;
80961;SDS011;70424;55.154;14.722;2023-12-14T14:35:42;10.48;;;5.85;;
80961;SDS011;70424;55.154;14.722;2023-12-14T14:38:08;9.20;;;5.20;;